createdAt,value
2023-01-01T00:02:08.959Z,192.68
2023-01-01T00:04:57.059Z,243.90
2023-01-01T00:07:45.048Z,189.23
2023-01-01T00:10:33.185Z,177.73
2023-01-01T00:13:21.451Z,196.43
2023-01-01T00:16:11.703Z,181.55
2023-01-01T00:19:01.274Z,173.57
2023-01-01T00:21:49.154Z,173.00
2023-01-01T00:24:37.391Z,169.52
2023-01-01T00:27:24.956Z,172.63
2023-01-01T00:30:16.224Z,164.60
2023-01-01T00:33:03.823Z,158.40
2023-01-01T00:35:52.890Z,141.40
2023-01-01T00:38:41.606Z,148.95
2023-01-01T00:41:29.815Z,154.68
2023-01-01T00:44:17.683Z,153.85
2023-01-01T00:47:05.593Z,151.85
2023-01-01T00:49:53.447Z,145.98
2023-01-01T00:52:42.926Z,149.15
2023-01-01T00:55:31.093Z,149.10
2023-01-01T00:58:20.330Z,150.48
2023-01-01T01:01:08.154Z,141.50
2023-01-01T01:03:55.982Z,138.15
2023-01-01T01:06:44.036Z,121.82
2023-01-01T01:09:33.635Z,54.72
2023-01-01T01:12:21.602Z,62.80
2023-01-01T01:15:10.682Z,82.90
2023-01-01T01:17:58.384Z,80.97
2023-01-01T01:20:52.590Z,59.53
2023-01-01T01:23:40.281Z,70.15
2023-01-01T01:26:32.610Z,29.33
2023-01-01T01:29:20.519Z,73.67
2023-01-01T01:32:08.418Z,51.03
2023-01-01T01:34:56.471Z,27.75
2023-01-01T01:37:44.377Z,62.95
2023-01-01T01:40:32.371Z,29.40
2023-01-01T01:43:25.935Z,42.70
2023-01-01T01:46:16.476Z,56.67
2023-01-01T01:53:27.600Z,44.83
2023-01-01T01:56:20.845Z,31.92
2023-01-01T01:59:10.941Z,28.63
2023-01-01T02:02:01.134Z,45.35
2023-01-01T02:05:14.403Z,37.53
2023-01-01T02:08:06.168Z,26.48
2023-01-01T02:10:53.968Z,33.53
2023-01-01T02:13:42.766Z,34.55
2023-01-01T02:16:38.818Z,28.92
2023-01-01T02:19:34.396Z,24.35
2023-01-01T02:23:53.204Z,29.23
2023-01-01T02:26:57.038Z,33.67
2023-01-01T02:29:49.928Z,32.30
2023-01-01T02:32:43.053Z,31.88
2023-01-01T02:35:38.922Z,29.98
2023-01-01T02:38:53.989Z,32.03
2023-01-01T02:41:45.331Z,30.48
2023-01-01T02:44:58.899Z,29.38
2023-01-01T02:47:50.861Z,32.38
2023-01-01T02:50:38.809Z,25.73
2023-01-01T02:53:33.111Z,29.13
2023-01-01T02:56:31.109Z,25.70
2023-01-01T02:59:46.658Z,28.17
2023-01-01T03:02:46.630Z,24.65
2023-01-01T03:09:20.144Z,25.20
2023-01-01T03:12:16.205Z,25.50
2023-01-01T03:15:13.788Z,27.75
2023-01-01T03:18:25.926Z,26.63
2023-01-01T03:24:06.631Z,26.35
2023-01-01T03:26:58.160Z,23.52
2023-01-01T03:29:48.903Z,23.63
2023-01-01T03:33:00.147Z,25.75
2023-01-01T03:35:53.293Z,23.10
2023-01-01T03:38:48.090Z,24.98
2023-01-01T03:41:41.474Z,28.67
2023-01-01T03:44:33.216Z,24.17
2023-01-01T03:47:21.528Z,23.20
2023-01-01T03:50:10.511Z,26.80
2023-01-01T03:53:09.121Z,25.33
2023-01-01T03:56:09.022Z,22.75
2023-01-01T03:59:05.812Z,22.63
2023-01-01T04:01:58.670Z,18.23
2023-01-01T04:04:47.535Z,23.40
2023-01-01T04:07:36.129Z,26.95
2023-01-01T04:10:25.373Z,21.52
2023-01-01T04:13:14.426Z,22.90
2023-01-01T04:16:02.674Z,20.15
2023-01-01T04:18:50.380Z,19.88
2023-01-01T04:21:38.420Z,20.55
2023-01-01T04:24:26.166Z,22.15
2023-01-01T04:27:14.220Z,20.20
2023-01-01T04:30:06.112Z,17.35
2023-01-01T04:32:53.808Z,20.00
2023-01-01T04:35:43.221Z,18.75
2023-01-01T04:38:31.014Z,16.38
2023-01-01T04:41:19.030Z,16.77
2023-01-01T04:44:07.265Z,19.65
2023-01-01T04:47:00.131Z,17.08
2023-01-01T04:49:48.344Z,17.25
2023-01-01T04:52:36.172Z,17.42
2023-01-01T04:55:24.087Z,16.60
2023-01-01T04:58:12.353Z,19.98
2023-01-01T05:01:00.141Z,15.45
2023-01-01T05:03:50.202Z,17.35
2023-01-01T05:06:39.588Z,15.80
2023-01-01T05:09:27.487Z,16.17
2023-01-01T05:12:15.498Z,15.65
2023-01-01T05:15:03.406Z,16.60
2023-01-01T05:17:51.353Z,16.02
2023-01-01T05:20:40.712Z,16.08
2023-01-01T05:23:28.685Z,17.13
2023-01-01T05:26:27.187Z,14.90
2023-01-01T05:29:17.135Z,14.15
2023-01-01T05:32:05.785Z,15.07
2023-01-01T05:34:54.257Z,17.35
2023-01-01T05:37:43.436Z,17.08
2023-01-01T05:40:31.401Z,12.00
2023-01-01T05:43:21.989Z,13.23
2023-01-01T05:46:13.147Z,11.85
2023-01-01T05:49:01.034Z,14.73
2023-01-01T05:51:48.786Z,11.93
2023-01-01T05:54:37.855Z,13.10
2023-01-01T05:57:25.716Z,13.32
2023-01-01T06:00:14.996Z,16.42
2023-01-01T06:03:05.669Z,13.13
2023-01-01T06:05:53.370Z,11.27
2023-01-01T06:08:41.841Z,12.80
2023-01-01T06:11:32.098Z,11.38
2023-01-01T06:14:19.861Z,11.77
2023-01-01T06:17:08.055Z,12.85
2023-01-01T06:19:55.848Z,12.43
2023-01-01T06:22:43.664Z,13.05
2023-01-01T06:25:31.577Z,10.18
2023-01-01T06:28:21.093Z,12.50
2023-01-01T06:31:11.318Z,11.30
2023-01-01T06:33:59.461Z,10.48
2023-01-01T06:36:47.433Z,12.80
2023-01-01T06:39:35.501Z,11.27
2023-01-01T06:42:23.566Z,11.25
2023-01-01T06:45:14.325Z,12.23
2023-01-01T06:48:03.077Z,11.52
2023-01-01T06:50:53.275Z,11.00
2023-01-01T06:53:41.321Z,11.23
2023-01-01T06:56:29.710Z,9.52
2023-01-01T06:59:18.010Z,12.02
2023-01-01T07:02:07.263Z,11.65
2023-01-01T07:05:04.468Z,12.18
2023-01-01T07:07:52.473Z,11.13
2023-01-01T07:10:40.382Z,12.35
2023-01-01T07:13:29.624Z,10.57
2023-01-01T07:16:17.429Z,12.73
2023-01-01T07:19:14.455Z,14.13
2023-01-01T07:22:16.207Z,14.02
2023-01-01T07:32:25.839Z,12.57
2023-01-01T07:35:17.076Z,12.70
2023-01-01T07:38:05.179Z,12.27
2023-01-01T07:40:53.169Z,10.82
2023-01-01T07:43:41.103Z,15.05
2023-01-01T07:46:30.129Z,14.88
2023-01-01T07:49:18.152Z,13.90
2023-01-01T07:52:07.490Z,15.43
2023-01-01T07:54:55.521Z,14.40
2023-01-01T07:57:43.515Z,12.82
2023-01-01T08:00:31.481Z,14.98
2023-01-01T08:03:19.633Z,18.55
2023-01-01T08:06:09.759Z,14.48
2023-01-01T08:09:11.718Z,16.20
2023-01-01T08:11:59.664Z,15.20
2023-01-01T08:14:48.636Z,17.23
2023-01-01T08:17:40.963Z,12.80
2023-01-01T08:20:39.790Z,15.52
2023-01-01T08:23:39.897Z,18.52
2023-01-01T08:26:34.198Z,19.00
2023-01-01T08:29:22.450Z,16.13
2023-01-01T08:32:10.798Z,17.80
2023-01-01T08:35:08.532Z,16.40
2023-01-01T08:37:56.566Z,17.90
2023-01-01T08:40:44.413Z,17.55
2023-01-01T08:43:33.805Z,13.57
2023-01-01T08:46:24.614Z,17.13
2023-01-01T08:49:12.525Z,15.70
2023-01-01T08:52:01.840Z,17.52
2023-01-01T08:54:49.576Z,16.38
2023-01-01T08:57:37.395Z,17.45
2023-01-01T09:00:29.894Z,21.95
2023-01-01T09:03:17.667Z,14.97
2023-01-01T09:06:06.013Z,13.20
2023-01-01T09:09:40.949Z,13.13
2023-01-01T09:12:29.522Z,12.60
2023-01-01T09:15:18.139Z,15.35
2023-01-01T09:18:19.982Z,12.98
2023-01-01T09:21:42.273Z,13.70
2023-01-01T09:24:30.207Z,14.13
2023-01-01T09:27:18.269Z,14.38
2023-01-01T09:30:07.101Z,16.13
2023-01-01T09:35:56.875Z,14.25
2023-01-01T09:38:49.455Z,14.60
2023-01-01T09:42:02.247Z,12.82
2023-01-01T09:45:37.894Z,13.68
2023-01-01T09:48:27.880Z,11.65
2023-01-01T09:51:24.905Z,12.60
2023-01-01T09:57:20.068Z,10.63
2023-01-01T10:00:16.556Z,9.30
2023-01-01T10:02:56.290Z,12.32
2023-01-01T10:05:55.011Z,10.50
2023-01-01T10:09:08.788Z,11.25
2023-01-01T10:12:45.262Z,7.75
2023-01-01T10:15:37.797Z,10.75
2023-01-01T10:18:30.251Z,7.72
2023-01-01T10:21:24.740Z,11.48
2023-01-01T10:24:35.041Z,8.82
2023-01-01T10:27:31.946Z,9.75
2023-01-01T10:30:24.040Z,11.05
2023-01-01T10:33:20.697Z,7.45
2023-01-01T10:36:11.776Z,10.30
2023-01-01T10:39:02.581Z,8.68
2023-01-01T10:41:52.536Z,10.52
2023-01-01T10:44:41.354Z,7.32
2023-01-01T10:47:30.879Z,8.32
2023-01-01T10:50:22.052Z,8.75
2023-01-01T10:53:21.846Z,7.65
2023-01-01T10:56:14.641Z,7.65
2023-01-01T10:59:05.740Z,11.23
2023-01-01T11:02:21.552Z,6.97
2023-01-01T11:05:21.533Z,12.80
2023-01-01T11:08:20.125Z,9.32
2023-01-01T11:11:21.028Z,7.30
2023-01-01T11:17:55.769Z,7.70
2023-01-01T11:20:44.489Z,9.98
2023-01-01T11:26:27.147Z,8.00
2023-01-01T11:29:27.042Z,7.45
2023-01-01T11:32:23.649Z,9.50
2023-01-01T11:35:20.178Z,8.13
2023-01-01T11:38:18.536Z,7.82
2023-01-01T11:41:08.157Z,11.07
2023-01-01T11:43:56.225Z,9.60
2023-01-01T11:46:48.227Z,12.00
2023-01-01T11:49:36.697Z,8.90
2023-01-01T11:52:38.018Z,11.18
2023-01-01T11:55:38.818Z,9.32
2023-01-01T11:58:31.988Z,11.73
2023-01-01T12:01:27.269Z,8.65
2023-01-01T12:04:22.723Z,7.50
2023-01-01T12:07:14.269Z,10.13
2023-01-01T12:10:07.689Z,9.00
2023-01-01T12:13:02.657Z,7.15
2023-01-01T12:15:56.909Z,10.52
2023-01-01T12:18:53.803Z,8.55
2023-01-01T12:21:54.750Z,8.45
2023-01-01T12:24:43.006Z,7.95
2023-01-01T12:27:47.111Z,8.65
2023-01-01T12:30:47.544Z,9.25
2023-01-01T12:33:59.760Z,9.10
2023-01-01T12:36:58.354Z,8.27
2023-01-01T12:40:25.030Z,7.93
2023-01-01T12:43:18.019Z,5.95
2023-01-01T12:49:28.050Z,6.40
2023-01-01T12:52:32.589Z,8.75
2023-01-01T12:56:04.106Z,6.47
2023-01-01T12:58:58.177Z,7.00
2023-01-01T13:01:48.283Z,7.30
2023-01-01T13:04:39.424Z,6.53
2023-01-01T13:07:40.682Z,6.32
2023-01-01T13:10:31.553Z,8.40
2023-01-01T13:13:20.290Z,8.07
2023-01-01T13:16:10.958Z,13.32
2023-01-01T13:19:02.586Z,9.68
2023-01-01T13:21:50.739Z,11.90
2023-01-01T13:24:40.332Z,12.80
2023-01-01T13:28:03.412Z,11.30
2023-01-01T13:30:52.611Z,8.45
2023-01-01T13:33:40.294Z,11.13
2023-01-01T13:36:34.615Z,11.95
2023-01-01T13:39:54.192Z,10.65
2023-01-01T13:43:06.315Z,10.85
2023-01-01T13:46:13.349Z,7.70
2023-01-01T13:53:52.411Z,9.40
2023-01-01T13:56:51.768Z,11.05
2023-01-01T14:00:06.125Z,10.55
2023-01-01T14:02:59.424Z,12.45
2023-01-01T14:05:50.819Z,15.35
2023-01-01T14:08:44.725Z,11.70
2023-01-01T14:11:32.793Z,12.85
2023-01-01T14:14:28.250Z,10.45
2023-01-01T14:17:18.080Z,7.22
2023-01-01T14:23:41.147Z,8.48
2023-01-01T14:29:24.877Z,10.77
2023-01-01T14:32:24.971Z,8.25
2023-01-01T14:35:26.931Z,8.70
2023-01-01T14:38:26.084Z,7.47
2023-01-01T14:41:20.084Z,11.10
2023-01-01T14:44:14.302Z,9.68
2023-01-01T14:47:06.504Z,9.63
2023-01-01T14:49:55.524Z,11.77
2023-01-01T14:52:45.091Z,9.68
2023-01-01T14:55:41.696Z,7.22
2023-01-01T14:58:31.362Z,8.75
2023-01-01T15:01:23.603Z,9.88
2023-01-01T15:04:24.274Z,12.73
2023-01-01T15:07:24.078Z,8.65
2023-01-01T15:10:14.612Z,7.28
2023-01-01T15:13:05.225Z,6.32
2023-01-01T15:15:54.890Z,11.15
2023-01-01T15:18:45.595Z,6.75
2023-01-01T15:21:41.270Z,7.43
2023-01-01T15:24:30.456Z,8.02
2023-01-01T15:27:26.058Z,7.65
2023-01-01T15:30:25.996Z,8.30
2023-01-01T15:33:18.855Z,8.80
2023-01-01T15:36:07.368Z,7.30
2023-01-01T15:38:57.296Z,8.52
2023-01-01T15:41:47.027Z,7.68
2023-01-01T15:44:38.420Z,7.97
2023-01-01T15:47:26.731Z,7.25
2023-01-01T15:50:23.161Z,7.20
2023-01-01T15:53:17.114Z,6.00
2023-01-01T15:56:11.474Z,8.57
2023-01-01T15:59:09.136Z,5.93
2023-01-01T16:02:14.587Z,6.68
2023-01-01T16:05:05.696Z,8.25
2023-01-01T16:11:18.531Z,6.50
2023-01-01T16:14:08.472Z,6.63
2023-01-01T16:17:00.807Z,7.55
2023-01-01T16:19:51.654Z,5.78
2023-01-01T16:22:39.412Z,5.93
2023-01-01T16:25:27.064Z,7.22
2023-01-01T16:28:16.881Z,7.68
2023-01-01T16:31:04.851Z,5.57
2023-01-01T16:33:55.869Z,6.38
2023-01-01T16:36:44.284Z,5.85
2023-01-01T16:39:33.532Z,7.68
2023-01-01T16:42:21.441Z,7.28
2023-01-01T16:45:20.893Z,8.38
2023-01-01T16:48:08.880Z,6.50
2023-01-01T16:50:56.685Z,5.78
2023-01-01T16:53:44.766Z,6.63
2023-01-01T16:56:32.794Z,6.05
2023-01-01T16:59:21.810Z,7.05
2023-01-01T17:02:12.736Z,7.47
2023-01-01T17:05:00.825Z,7.47
2023-01-01T17:07:48.893Z,5.80
2023-01-01T17:10:36.783Z,7.38
2023-01-01T17:13:24.744Z,6.25
2023-01-01T17:16:15.572Z,5.63
2023-01-01T17:19:16.632Z,8.95
2023-01-01T17:22:05.587Z,8.90
2023-01-01T17:24:53.454Z,7.55
2023-01-01T17:27:41.525Z,8.77
2023-01-01T17:30:29.590Z,7.55
2023-01-01T17:33:17.513Z,8.55
2023-01-01T17:36:08.161Z,8.35
2023-01-01T17:38:56.438Z,5.78
2023-01-01T17:41:45.535Z,8.43
2023-01-01T17:44:33.187Z,8.07
2023-01-01T17:47:21.106Z,6.90
2023-01-01T17:50:10.127Z,8.57
2023-01-01T17:52:59.464Z,6.50
2023-01-01T17:55:47.447Z,6.28
2023-01-01T17:58:37.102Z,6.47
2023-01-01T18:01:33.166Z,7.53
2023-01-01T18:04:21.220Z,9.55
2023-01-01T18:07:09.528Z,8.88
2023-01-01T18:09:58.539Z,11.70
2023-01-01T18:12:46.267Z,8.15
2023-01-01T18:15:38.187Z,8.93
2023-01-01T18:18:26.160Z,18.90
2023-01-01T18:21:19.274Z,11.55
2023-01-01T18:24:12.866Z,8.70
2023-01-01T18:27:04.639Z,10.50
2023-01-01T18:29:52.809Z,13.47
2023-01-01T18:32:40.552Z,23.35
2023-01-01T18:35:28.489Z,28.83
2023-01-01T18:38:21.336Z,18.25
2023-01-01T18:41:29.221Z,18.00
2023-01-01T18:44:22.507Z,16.95
2023-01-01T18:47:16.045Z,21.50
2023-01-01T18:50:15.243Z,33.08
2023-01-01T18:53:12.659Z,24.55
2023-01-01T18:56:10.013Z,17.75
2023-01-01T18:58:59.022Z,17.08
2023-01-01T19:06:41.881Z,17.58
2023-01-01T19:11:31.779Z,15.57
2023-01-01T19:25:51.623Z,16.17
2023-01-01T19:28:55.125Z,16.70
2023-01-01T19:32:20.624Z,14.70
2023-01-01T19:35:24.551Z,14.05
2023-01-01T19:38:12.337Z,12.75
2023-01-01T19:41:00.387Z,14.35
2023-01-01T19:43:49.943Z,16.08
2023-01-01T19:46:40.656Z,11.90
2023-01-01T19:49:29.445Z,13.93
2023-01-01T19:52:17.549Z,15.07
2023-01-01T19:55:07.403Z,15.13
2023-01-01T19:57:55.574Z,17.08
2023-01-01T20:00:45.254Z,13.73
2023-01-01T20:03:53.502Z,14.25
2023-01-01T20:06:41.708Z,13.50
2023-01-01T20:09:29.652Z,11.48
2023-01-01T20:12:17.652Z,16.83
2023-01-01T20:15:07.876Z,17.88
2023-01-01T20:17:57.354Z,11.65
2023-01-01T20:20:59.374Z,13.32
2023-01-01T20:23:47.193Z,16.23
2023-01-01T20:26:35.213Z,14.60
2023-01-01T20:29:23.529Z,14.05
2023-01-01T20:32:13.279Z,16.08
2023-01-01T20:35:13.763Z,18.98
2023-01-01T20:38:06.401Z,14.38
2023-01-01T20:40:54.160Z,12.95
2023-01-01T20:43:42.020Z,15.48
2023-01-01T20:46:30.300Z,18.27
2023-01-01T20:49:18.800Z,16.75
2023-01-01T20:52:08.091Z,13.45
2023-01-01T20:54:56.172Z,14.13
2023-01-01T20:57:43.799Z,13.48
2023-01-01T21:00:31.819Z,16.92
2023-01-01T21:03:19.868Z,18.38
2023-01-01T21:06:08.004Z,12.73
2023-01-01T21:08:57.079Z,12.15
2023-01-01T21:11:45.209Z,15.27
2023-01-01T21:14:33.744Z,16.67
2023-01-01T21:17:23.693Z,13.98
2023-01-01T21:20:13.131Z,16.77
2023-01-01T21:23:01.378Z,13.25
2023-01-01T21:25:52.584Z,14.60
2023-01-01T21:28:42.043Z,13.73
2023-01-01T21:31:43.622Z,14.75
2023-01-01T21:34:38.634Z,12.95
2023-01-01T21:37:46.022Z,13.13
2023-01-01T21:40:41.858Z,12.38
2023-01-01T21:43:39.749Z,17.60
2023-01-01T21:46:34.469Z,12.75
2023-01-01T21:49:30.238Z,13.40
2023-01-01T21:52:23.086Z,13.20
2023-01-01T21:55:20.008Z,14.82
2023-01-01T21:58:25.787Z,9.95
2023-01-01T22:01:25.677Z,14.13
2023-01-01T22:04:23.664Z,12.00
2023-01-01T22:07:56.967Z,13.68
2023-01-01T22:10:38.291Z,11.98
2023-01-01T22:13:26.654Z,12.05
2023-01-01T22:16:20.640Z,13.48
2023-01-01T22:19:21.788Z,13.77
2023-01-01T22:22:14.813Z,11.88
2023-01-01T22:25:24.347Z,13.68
2023-01-01T22:28:19.979Z,11.20
2023-01-01T22:31:09.594Z,11.07
2023-01-01T22:34:00.464Z,12.60
2023-01-01T22:36:48.949Z,11.82
2023-01-01T22:39:37.458Z,12.98
2023-01-01T22:42:25.517Z,11.18
2023-01-01T22:45:16.895Z,15.73
2023-01-01T22:48:07.883Z,13.27
2023-01-01T22:51:07.249Z,13.32
2023-01-01T22:53:55.233Z,10.38
2023-01-01T22:56:43.149Z,10.98
2023-01-01T22:59:31.127Z,11.25
2023-01-01T23:02:21.985Z,12.73
2023-01-01T23:05:10.404Z,10.43
2023-01-01T23:08:00.359Z,9.30
2023-01-01T23:14:27.959Z,9.95
2023-01-01T23:17:16.034Z,11.77
2023-01-01T23:20:04.149Z,9.70
2023-01-01T23:22:56.026Z,8.90
2023-01-01T23:25:45.441Z,8.40
2023-01-01T23:28:34.798Z,10.23
2023-01-01T23:31:25.545Z,9.18
2023-01-01T23:34:14.338Z,7.38
2023-01-01T23:37:02.095Z,10.00
2023-01-01T23:39:50.071Z,11.10
2023-01-01T23:42:46.382Z,8.95
2023-01-01T23:45:35.497Z,9.65
2023-01-01T23:48:24.106Z,7.38
2023-01-01T23:51:12.475Z,9.10
2023-01-01T23:54:00.295Z,7.53
2023-01-01T23:56:50.797Z,7.03
2023-01-01T23:59:46.599Z,6.90
